Terminal Aerodrome Forecast
Issued by NWS Shreveport, LA

Home | Current Version | Previous Version | Text Only | Print | Product List | Glossary On
Versions: 1 2 3 4 5 6 7 8 9 10 11 12 13 14 15 16 17 18 19
000
FTUS44 KSHV 281142
TAFTXK
TAF
KTXK 281142Z 2812/2912 13004KT P6SM FEW030
      TEMPO 2812/2814 5SM BR BKN015
     FM281500 20005KT P6SM VCSH SCT025
     FM281700 17006KT P6SM VCTS BKN035CB
     FM290000 14004KT P6SM SCT050 BKN100=

USA.gov is the U.S. government's official web portal to all federal, state and local government web resources and services.